createdAt,value
2018-09-21T00:03:15.781Z,24.88
2018-09-21T00:13:18.894Z,24.90
2018-09-21T00:23:22.100Z,24.87
2018-09-21T00:33:25.823Z,24.89
2018-09-21T00:43:29.030Z,24.87
2018-09-21T00:53:32.192Z,24.84
2018-09-21T01:03:35.513Z,24.84
2018-09-21T01:19:52.812Z,24.81
2018-09-21T01:31:31.102Z,24.81
2018-09-21T01:41:34.530Z,24.79
2018-09-21T01:51:37.653Z,24.78
2018-09-21T02:01:40.904Z,24.76
2018-09-21T02:11:44.268Z,24.75
2018-09-21T02:21:47.878Z,24.74
2018-09-21T02:31:51.110Z,24.71
2018-09-21T02:41:54.463Z,24.71
2018-09-21T02:51:57.861Z,24.72
2018-09-21T03:02:01.093Z,24.69
2018-09-21T03:12:04.189Z,24.70
2018-09-21T03:22:07.638Z,24.68
2018-09-21T03:32:10.990Z,24.69
2018-09-21T03:42:14.198Z,24.66
2018-09-21T03:52:17.388Z,24.66
2018-09-21T04:02:20.578Z,24.63
2018-09-21T04:12:23.833Z,24.61
2018-09-21T04:22:27.002Z,24.60
2018-09-21T04:32:29.995Z,24.59
2018-09-21T04:42:33.200Z,24.58
2018-09-21T04:52:36.416Z,24.58
2018-09-21T05:02:39.433Z,24.57
2018-09-21T05:12:42.762Z,24.55
2018-09-21T05:22:46.026Z,24.56
2018-09-21T05:32:49.057Z,24.57
2018-09-21T05:42:52.704Z,24.55
2018-09-21T05:52:55.826Z,24.58
2018-09-21T06:02:59.090Z,24.58
2018-09-21T06:13:02.117Z,24.61
2018-09-21T06:23:05.250Z,24.57
2018-09-21T06:33:08.361Z,24.58
2018-09-21T06:43:11.663Z,24.55
2018-09-21T06:53:14.844Z,24.69
2018-09-21T07:03:17.977Z,24.89
2018-09-21T07:13:21.170Z,24.91
2018-09-21T07:23:24.189Z,24.86
2018-09-21T07:33:27.329Z,24.73
2018-09-21T07:43:30.953Z,24.78
2018-09-21T07:53:34.057Z,24.89
2018-09-21T08:03:37.219Z,25.06
2018-09-21T08:13:40.375Z,25.15
2018-09-21T08:23:43.520Z,25.16
2018-09-21T08:33:47.917Z,25.36
2018-09-21T08:43:51.188Z,25.57
2018-09-21T08:53:54.360Z,25.64
2018-09-21T09:03:57.469Z,25.91
2018-09-21T09:14:00.687Z,26.04
2018-09-21T09:24:03.763Z,26.06
2018-09-21T09:34:06.910Z,26.07
2018-09-21T09:44:10.591Z,26.06
2018-09-21T09:57:49.435Z,26.23
2018-09-21T10:07:53.906Z,26.30
2018-09-21T10:17:56.968Z,26.26
2018-09-21T10:28:00.297Z,26.28
2018-09-21T10:38:03.239Z,26.52
2018-09-21T10:48:06.328Z,26.66
2018-09-21T10:58:09.461Z,26.72
2018-09-21T11:08:12.602Z,26.63
2018-09-21T11:18:15.809Z,26.65
2018-09-21T11:28:19.076Z,26.54
2018-09-21T11:38:21.542Z,26.43
2018-09-21T11:48:23.885Z,26.46
2018-09-21T11:58:26.386Z,26.36
2018-09-21T12:08:28.796Z,26.54
2018-09-21T12:18:31.237Z,26.84
2018-09-21T12:28:33.599Z,26.74
2018-09-21T12:38:36.306Z,26.66
2018-09-21T12:48:38.696Z,26.67
2018-09-21T12:58:41.229Z,26.78
2018-09-21T13:08:43.716Z,26.91
2018-09-21T13:18:46.281Z,26.89
2018-09-21T13:28:48.732Z,26.87
2018-09-21T13:38:51.245Z,26.89
2018-09-21T13:48:53.779Z,26.98
2018-09-21T13:58:56.776Z,27.03
2018-09-21T14:08:59.321Z,27.04
2018-09-21T14:19:01.838Z,27.02
2018-09-21T14:29:04.391Z,27.08
2018-09-21T14:39:07.573Z,26.85
2018-09-21T14:49:09.972Z,26.80
2018-09-21T14:59:12.485Z,26.86
2018-09-21T15:09:15.049Z,26.54
2018-09-21T15:19:17.980Z,26.22
2018-09-21T15:29:20.469Z,26.33
2018-09-21T15:39:23.062Z,26.75
2018-09-21T15:49:25.617Z,26.72
2018-09-21T15:59:28.322Z,26.56
2018-09-21T16:09:30.839Z,26.40
2018-09-21T16:19:33.287Z,26.67
2018-09-21T16:29:35.900Z,26.65
2018-09-21T16:39:38.348Z,26.56
2018-09-21T16:49:40.816Z,26.61
2018-09-21T16:59:43.201Z,25.91
2018-09-21T17:09:47.371Z,25.53
2018-09-21T17:19:49.880Z,25.68
2018-09-21T17:29:52.397Z,25.99
2018-09-21T17:39:54.864Z,26.24
2018-09-21T17:49:57.222Z,26.31
2018-09-21T17:59:59.728Z,26.27
2018-09-21T18:10:02.058Z,26.37
2018-09-21T18:20:04.421Z,26.38
2018-09-21T18:30:06.907Z,26.34
2018-09-21T18:40:09.253Z,26.36
2018-09-21T18:50:11.575Z,26.42
2018-09-21T19:00:14.072Z,26.43
2018-09-21T19:10:16.421Z,26.49
2018-09-21T19:20:18.892Z,26.46
2018-09-21T19:30:21.237Z,26.46
2018-09-21T19:40:23.579Z,26.38
2018-09-21T19:50:26.073Z,24.62
2018-09-21T20:00:28.401Z,24.25
2018-09-21T20:10:30.734Z,24.41
2018-09-21T20:20:33.044Z,25.22
2018-09-21T20:30:40.772Z,25.24
2018-09-21T20:40:43.208Z,25.33
2018-09-21T20:50:45.817Z,25.39
2018-09-21T21:00:48.276Z,25.58
2018-09-21T21:10:50.572Z,25.39
2018-09-21T21:20:52.920Z,25.32
2018-09-21T21:30:55.250Z,25.28
2018-09-21T21:40:58.019Z,25.25
2018-09-21T21:51:00.509Z,25.23
2018-09-21T22:01:08.492Z,25.22
2018-09-21T22:11:16.244Z,25.16
2018-09-21T22:21:19.487Z,25.16
2018-09-21T22:31:22.089Z,25.14
2018-09-21T22:41:29.316Z,25.12
2018-09-21T22:51:33.633Z,25.10
2018-09-21T23:01:37.580Z,25.05
2018-09-21T23:11:40.527Z,25.09
2018-09-21T23:21:44.434Z,25.06
2018-09-21T23:31:51.662Z,25.02
2018-09-21T23:41:54.142Z,24.97
2018-09-21T23:51:56.967Z,24.99
